Latest Weather Observations for Cape Byron

IDN60801

Issued at 2:02 am EST Sunday 24 May 2015 (issued every 30 minutes, with the page automatically refreshed every 10 minutes)

About weather observations | Map of weather stations | Latest weather observations for NSW | Other Formats
Station Details ID: 058216 Name: CAPE BYRON AWS Lat: -28.64 Lon: 153.64 Height: 95.0 m
Data from the previous 72 hours. | See also: Recent months at Cape Byron
Date/Time
EST
Temp
°C
App
Temp
°C
Dew
Point
Rel
Hum
%
Delta-T
°C
Wind Press
QNH
hPa
Press
MSL
hPa
Rain
since 9 am
mm
Dir
 
Spd
km/h
Gust
km/h
Spd
kts
Gust
kts
24/02:00am 13.5 8.6 12.4 93 0.6 SW 30 37 16 20 1026.1 1025.9 2.6
24/01:30am 13.6 7.8 12.7 94 0.5 SW 35 46 19 25 1026.1 1025.9 2.6
24/01:00am 13.6 8.4 12.8 95 0.4 SW 32 37 17 20 1025.9 1025.7 2.6
24/12:30am 13.8 9.5 13.2 96 0.3 SW 28 33 15 18 1025.9 1025.7 2.6
24/12:00am 13.9 9.6 13.1 95 0.4 SW 28 37 15 20 1026.2 1026.0 2.0
 
Date/Time
EST
Temp
°C
App
Temp
°C
Dew
Point
Rel
Hum
%
Delta-T
°C
Wind Press
QNH
hPa
Press
MSL
hPa
Rain
since 9 am
mm
Dir
 
Spd
km/h
Gust
km/h
Spd
kts
Gust
kts
23/11:30pm 14.2 10.3 13.4 95 0.4 SW 26 33 14 18 1026.4 1026.2 1.6
23/11:00pm 14.2 10.7 13.4 95 0.4 SW 24 33 13 18 1026.3 1026.1 1.6
23/10:42pm 14.4 10.2 13.6 95 0.4 SW 28 46 15 25 1026.4 1026.2 1.6
23/10:30pm 14.4 8.9 13.6 95 0.4 SW 35 46 19 25 1026.4 1026.2 1.6
23/10:00pm 14.1 9.4 13.1 94 0.6 SW 30 39 16 21 1026.3 1026.1 1.4
23/09:30pm 14.2 9.9 13.2 94 0.6 SW 28 35 15 19 1026.5 1026.3 1.4
23/09:00pm 14.6 10.4 13.5 93 0.6 SW 28 37 15 20 1026.3 1026.1 1.4
23/08:30pm 14.5 10.1 13.0 91 0.8 SW 28 39 15 21 1026.3 1026.1 0.8
23/08:00pm 15.1 10.0 13.0 87 1.2 SW 32 41 17 22 1026.0 1025.8 0.2
23/07:30pm 15.7 10.4 13.0 84 1.5 SW 33 46 18 25 1025.9 1025.7 0.0
23/07:00pm 15.9 11.9 13.0 83 1.6 SW 26 35 14 19 1025.7 1025.5 0.0
23/06:30pm 17.3 13.6 12.6 74 2.6 SW 24 33 13 18 1025.4 1025.2 0.0
23/06:11pm 18.7 13.5 12.7 68 3.4 S 32 44 17 24 1025.3 1025.1 0.0
23/06:00pm 18.8 12.2 11.4 62 4.0 SSE 37 46 20 25 1025.2 1025.0 0.0
23/05:30pm 18.8 11.8 11.4 62 4.1 S 39 50 21 27 1024.9 1024.7 0.0
23/05:00pm 18.9 10.8 10.7 59 4.4 S 44 56 24 30 1024.8 1024.6 0.0
23/04:30pm 19.0 10.3 9.8 55 4.9 S 46 56 25 30 1024.5 1024.3 0.0
23/04:00pm 18.9 10.3 10.2 57 4.7 S 46 57 25 31 1024.3 1024.1 0.0
23/03:30pm 19.0 10.2 11.1 60 4.3 SSW 48 56 26 30 1024.4 1024.2 0.0
23/03:00pm 19.0 10.5 9.2 53 5.1 S 44 56 24 30 1024.2 1024.0 0.0
23/02:30pm 19.2 10.1 9.9 55 5.0 S 48 59 26 32 1024.0 1023.8 0.0
23/02:00pm 19.0 9.7 10.6 58 4.5 S 50 65 27 35 1023.7 1023.5 0.0
23/01:30pm 19.0 8.9 10.3 57 4.7 S 54 65 29 35 1023.6 1023.4 0.0
23/01:00pm 18.8 9.1 10.6 59 4.4 SSW 52 61 28 33 1023.5 1023.3 0.0
23/12:30pm 18.6 8.5 10.4 59 4.4 S 54 67 29 36 1023.8 1023.6 0.0
23/12:02pm 18.8 10.0 12.3 66 3.6 SSW 50 76 27 41 1024.0 1023.8 0.0
23/12:00pm 18.9 10.4 11.9 64 3.9 SSW 48 57 26 31 1024.0 1023.8 0.0
23/11:30am 18.8 10.1 12.5 67 3.5 SSW 50 61 27 33 1024.2 1024.0 0.0
23/11:00am 18.0 8.2 13.3 74 2.7 SSW 57 78 31 42 1024.2 1024.0 0.0
23/10:54am 18.7 10.1 12.9 69 3.3 S 50 72 27 39 1024.2 1024.0 0.0
23/10:48am 17.8 11.8 12.0 69 3.2 SSW 35 57 19 31 1024.4 1024.2 0.0
23/10:30am 17.2 10.9 12.3 73 2.7 SW 37 57 20 31 1024.3 1024.1 0.0
23/10:12am 17.0 11.0 12.1 73 2.7 SW 35 54 19 29 1024.3 1024.1 0.0
23/10:00am 17.3 9.9 12.4 73 2.7 SW 43 57 23 31 1024.2 1024.0 0.0
23/09:44am 17.2 11.3 12.5 74 2.6 SW 35 54 19 29 1024.0 1023.8 0.0
23/09:30am 16.4 10.0 12.0 75 2.4 SW 37 48 20 26 1024.1 1023.9 0.0
23/09:05am 15.7 9.6 11.7 77 2.2 SW 35 54 19 29 1023.8 1023.6 0.0
23/09:00am 15.8 9.8 12.0 78 2.1 SW 35 50 19 27 1023.8 1023.6 0.0
23/08:30am 15.4 9.6 11.4 77 2.1 SW 33 44 18 24 1023.4 1023.2 0.0
23/08:26am 15.4 9.6 11.4 77 2.2 SW 33 52 18 28 1023.4 1023.2 0.0
23/08:00am 15.1 9.2 11.3 78 2.0 SW 33 44 18 24 1023.1 1022.9 0.0
23/07:34am 14.7 8.7 10.9 78 2.0 SW 33 52 18 28 1022.6 1022.4 0.0
23/07:30am 14.6 8.6 10.8 78 2.0 SW 33 46 18 25 1022.5 1022.3 0.0
23/07:00am 14.8 7.7 10.8 77 2.1 SW 39 52 21 28 1022.1 1021.9 0.0
23/06:30am 14.7 7.5 10.5 76 2.2 SW 39 50 21 27 1021.6 1021.4 0.0
23/06:00am 14.9 7.3 10.5 75 2.3 SW 41 56 22 30 1021.0 1020.8 0.0
23/05:30am 14.7 7.1 10.5 76 2.2 SW 41 54 22 29 1020.5 1020.3 0.0
23/05:00am 14.2 7.1 11.0 81 1.7 SW 39 52 21 28 1020.4 1020.2 0.0
23/04:30am 14.2 7.1 11.0 81 1.7 SW 39 56 21 30 1020.1 1019.9 0.0
23/04:00am 15.1 7.9 10.5 74 2.4 SW 39 52 21 28 1019.8 1019.6 0.0
23/03:30am 15.1 7.9 10.5 74 2.4 SW 39 54 21 29 1019.6 1019.4 0.0
23/03:00am 15.0 8.6 10.8 76 2.2 SW 35 48 19 26 1019.6 1019.4 0.0
23/02:30am 15.4 7.8 10.6 73 2.5 SW 41 54 22 29 1019.3 1019.1 0.0
23/02:00am 15.6 8.0 10.6 72 2.7 SW 41 56 22 30 1019.3 1019.1 0.0
23/01:34am 15.3 8.6 10.9 75 2.3 SW 37 56 20 30 1019.2 1019.0 0.0
23/01:30am 15.2 7.7 10.8 75 2.3 SW 41 56 22 30 1019.2 1019.0 0.0
23/01:00am 16.1 8.1 10.4 69 3.0 SW 43 54 23 29 1019.1 1018.9 0.0
23/12:30am 16.0 8.4 10.5 70 2.9 SW 41 54 22 29 1019.1 1018.9 0.0
23/12:19am 16.1 9.3 10.6 70 2.9 SW 37 56 20 30 1019.2 1019.0 0.0
23/12:00am 15.9 8.8 10.9 72 2.7 SW 39 54 21 29 1018.9 1018.7 0.0
 
Date/Time
EST
Temp
°C
App
Temp
°C
Dew
Point
Rel
Hum
%
Delta-T
°C
Wind Press
QNH
hPa
Press
MSL
hPa
Rain
since 9 am
mm
Dir
 
Spd
km/h
Gust
km/h
Spd
kts
Gust
kts
22/11:34pm 15.9 8.1 11.1 73 2.6 SW 43 63 23 34 1018.4 1018.2 0.0
22/11:30pm 15.9 8.1 11.1 73 2.6 SW 43 59 23 32 1018.6 1018.4 0.0
22/11:01pm 16.1 8.0 10.2 68 3.1 SW 43 61 23 33 1018.5 1018.3 0.0
22/11:00pm 16.1 7.8 10.2 68 3.1 SW 44 61 24 33 1018.5 1018.3 0.0
22/10:44pm 16.0 8.7 10.1 68 3.1 SW 39 57 21 31 1018.5 1018.3 0.0
22/10:30pm 16.0 9.1 10.3 69 3.0 SW 37 54 20 29 1018.4 1018.2 0.0
22/10:05pm 16.5 9.9 8.7 60 4.0 SW 33 54 18 29 1018.3 1018.1 0.0
22/10:00pm 16.5 9.9 8.5 59 4.1 SW 33 44 18 24 1018.2 1018.0 0.0
22/09:41pm 16.7 8.5 8.4 58 4.3 SW 41 59 22 32 1017.9 1017.6 0.0
22/09:30pm 16.6 9.8 7.8 56 4.5 SW 33 48 18 26 1018.0 1017.8 0.0
22/09:26pm 16.5 9.3 7.7 56 4.4 SW 35 54 19 29 1017.9 1017.6 0.0
22/09:00pm 16.3 8.7 7.5 56 4.4 SW 37 50 20 27 1017.4 1017.1 0.0
22/08:30pm 16.1 8.8 7.3 56 4.4 WSW 35 46 19 25 1017.5 1017.2 0.0
22/08:00pm 16.1 9.4 7.3 56 4.4 WSW 32 46 17 25 1017.1 1016.8 0.0
22/07:30pm 15.8 9.9 7.3 57 4.2 W 28 39 15 21 1016.6 1016.3 0.0
22/07:00pm 15.8 9.5 7.3 57 4.2 W 30 39 16 21 1016.0 1015.8 0.0
22/06:30pm 15.8 11.1 7.6 58 4.1 W 22 33 12 18 1015.8 1015.6 0.0
22/06:00pm 16.0 11.8 7.5 57 4.3 W 19 26 10 14 1015.5 1015.3 0.0
22/05:30pm 16.2 11.8 7.4 56 4.4 WSW 20 28 11 15 1015.3 1015.1 0.0
22/05:00pm 16.6 12.2 7.5 55 4.6 W 20 32 11 17 1014.9 1014.7 0.0
22/04:30pm 17.1 11.6 7.7 54 4.8 W 26 35 14 19 1014.6 1014.4 0.0
22/04:00pm 17.9 12.1 7.9 52 5.1 W 28 41 15 22 1014.2 1014.0 0.0
22/03:30pm 18.1 13.0 7.8 51 5.3 W 24 43 13 23 1013.9 1013.7 0.0
22/03:05pm 18.4 12.0 8.4 52 5.2 W 32 50 17 27 1013.7 1013.5 0.0
22/03:00pm 18.4 12.2 7.8 50 5.4 W 30 46 16 25 1013.8 1013.6 0.0
22/02:43pm 18.3 12.5 8.0 51 5.3 W 28 57 15 31 1013.7 1013.5 0.0
22/02:30pm 18.1 13.0 7.8 51 5.3 W 24 39 13 21 1013.9 1013.7 0.0
22/02:06pm 18.1 11.4 7.2 49 5.5 W 32 52 17 28 1013.9 1013.7 0.0
22/02:00pm 18.2 11.6 7.6 50 5.4 WSW 32 46 17 25 1013.9 1013.7 0.0
22/01:43pm 18.1 11.8 7.5 50 5.4 SW 30 48 16 26 1013.9 1013.7 0.0
22/01:30pm 18.0 12.1 7.7 51 5.2 WSW 28 43 15 23 1013.9 1013.7 0.0
22/01:04pm 17.8 11.0 6.7 48 5.5 W 32 50 17 27 1014.1 1013.9 0.0
22/01:00pm 17.7 10.8 7.2 50 5.3 W 33 50 18 27 1014.1 1013.9 0.0
22/12:30pm 17.7 11.8 7.7 52 5.1 W 28 54 15 29 1014.4 1014.2 0.0
22/12:00pm 17.3 11.4 7.4 52 5.0 W 28 48 15 26 1014.8 1014.6 0.0
22/11:53am 17.2 10.6 7.8 54 4.8 W 32 50 17 27 1014.9 1014.7 0.0
22/11:30am 16.9 10.1 7.8 55 4.6 W 33 46 18 25 1015.0 1014.8 0.0
22/11:05am 16.8 11.0 8.0 56 4.5 W 28 48 15 26 1015.3 1015.1 0.0
22/11:00am 16.8 11.6 9.0 60 4.0 W 26 41 14 22 1015.4 1015.2 0.0
22/10:31am 16.2 10.0 7.7 57 4.3 W 30 48 16 26 1015.7 1015.5 0.0
22/10:30am 16.3 10.2 8.3 59 4.1 W 30 44 16 24 1015.7 1015.5 0.0
22/10:04am 16.0 10.5 9.0 63 3.6 WNW 28 46 15 25 1016.3 1016.0 0.0
22/10:00am 15.9 9.7 7.9 59 4.0 W 30 46 16 25 1016.3 1016.0 0.0
22/09:30am 15.9 9.8 8.4 61 3.8 W 30 48 16 26 1016.1 1015.9 0.0
22/09:09am 16.0 10.3 8.5 61 3.8 WNW 28 46 15 25 1015.9 1015.7 0.0
22/09:00am 16.0 9.6 8.7 62 3.7 W 32 46 17 25 1015.7 1015.5 4.0
22/08:45am 16.0 10.1 9.0 63 3.6 W 30 50 16 27 1015.6 1015.4 4.0
22/08:30am 16.0 11.5 9.9 67 3.2 WNW 24 37 13 20 1015.5 1015.3 4.0
22/08:00am 15.5 11.8 10.3 71 2.7 WNW 20 30 11 16 1015.2 1015.0 4.0
22/07:30am 14.8 12.5 10.4 75 2.3 WNW 13 20 7 11 1015.3 1015.1 4.0
22/07:00am 15.2 11.6 10.6 74 2.4 WNW 20 26 11 14 1015.3 1015.1 4.0
22/06:30am 15.6 11.0 11.0 74 2.5 W 26 35 14 19 1015.0 1014.8 4.0
22/06:00am 15.4 13.0 11.4 77 2.2 W 15 24 8 13 1015.1 1014.9 4.0
22/05:30am 15.9 15.2 12.1 78 2.1 WSW 7 11 4 6 1015.1 1014.9 4.0
22/05:00am 15.9 13.5 12.8 82 1.7 WNW 17 22 9 12 1014.8 1014.6 4.0
22/04:30am 16.0 13.8 13.3 84 1.5 WNW 17 24 9 13 1014.7 1014.5 4.0
22/04:00am 15.9 14.2 13.6 86 1.3 WNW 15 20 8 11 1014.5 1014.3 4.0
22/03:30am 16.0 13.9 13.7 86 1.3 NW 17 22 9 12 1014.7 1014.5 4.0
22/03:00am 15.9 13.4 13.6 86 1.3 W 19 24 10 13 1014.7 1014.5 4.0
22/02:30am 15.6 13.4 14.3 92 0.7 W 19 24 10 13 1015.0 1014.8 4.0
22/02:00am 16.1 15.3 15.0 93 0.6 NW 13 17 7 9 1015.2 1015.0 4.0
22/01:30am 16.8 17.6 15.8 94 0.6 N 6 9 3 5 1015.4 1015.2 4.0
22/01:00am 16.8 17.4 15.8 94 0.6 NNE 7 9 4 5 1015.9 1015.7 4.0
22/12:30am 16.6 16.8 15.8 95 0.5 NNW 9 13 5 7 1016.1 1015.9 4.0
22/12:00am 16.6 17.2 15.8 95 0.5 N 7 9 4 5 1016.5 1016.2 4.0
 
Date/Time
EST
Temp
°C
App
Temp
°C
Dew
Point
Rel
Hum
%
Delta-T
°C
Wind Press
QNH
hPa
Press
MSL
hPa
Rain
since 9 am
mm
Dir
 
Spd
km/h
Gust
km/h
Spd
kts
Gust
kts
21/11:30pm 16.3 16.7 15.3 94 0.6 NW 7 9 4 5 1016.8 1016.5 4.0
21/11:00pm 15.9 16.2 14.9 94 0.6 NW 7 11 4 6 1017.2 1016.9 3.8
21/10:30pm 15.7 15.5 14.7 94 0.6 NW 9 11 5 6 1017.2 1016.9 3.8
21/10:00pm 15.8 15.2 14.7 93 0.6 WNW 11 15 6 8 1017.5 1017.2 3.8
21/09:30pm 16.4 16.4 15.1 92 0.8 WNW 9 15 5 8 1017.7 1017.4 3.8
21/09:00pm 16.6 16.6 15.3 92 0.8 NNW 9 11 5 6 1017.5 1017.2 3.8
21/08:30pm 16.5 17.4 15.2 92 0.8 ENE 4 7 2 4 1017.7 1017.4 3.8
21/08:00pm 16.3 16.6 15.0 92 0.8 SE 7 9 4 5 1017.8 1017.5 3.4
21/07:30pm 16.3 16.1 14.8 91 0.9 SSW 9 11 5 6 1017.9 1017.6 2.4
21/07:00pm 16.3 15.7 14.7 90 0.9 SW 11 15 6 8 1018.1 1017.9 1.2
21/06:30pm 16.9 16.1 15.1 89 1.0 S 13 17 7 9 1017.5 1017.2 0.8
21/06:00pm 16.6 15.8 15.1 91 0.9 SSE 13 19 7 10 1017.1 1016.8 0.8
21/05:30pm 16.3 15.1 15.0 92 0.8 SSW 15 20 8 11 1017.8 1017.5 0.8
21/05:00pm 16.1 14.4 14.6 91 0.9 SW 17 22 9 12 1017.8 1017.5 0.8
21/04:30pm 16.5 14.2 14.7 89 1.0 SW 20 32 11 17 1017.7 1017.4 0.4
21/04:00pm 16.7 14.2 14.2 85 1.4 SW 20 30 11 16 1017.8 1017.5 0.0
21/03:30pm 17.0 12.9 13.7 81 1.9 SW 28 33 15 18 1017.4 1017.1 0.0
21/03:00pm 17.4 14.4 13.7 79 2.1 SW 22 32 12 17 1017.1 1016.8 0.0
21/02:30pm 17.5 14.4 14.6 83 1.7 SW 24 33 13 18 1016.9 1016.6 0.0
21/02:00pm 17.1 13.4 14.9 87 1.3 SW 28 33 15 18 1016.6 1016.3 0.0
21/01:30pm 16.9 12.7 14.7 87 1.3 SW 30 39 16 21 1016.9 1016.6 0.0
21/01:00pm 17.4 12.3 14.9 85 1.5 SW 35 46 19 25 1017.0 1016.7 0.0
21/12:48pm 18.4 13.6 15.6 84 1.7 SW 35 48 19 26 1017.0 1016.7 0.0
21/12:30pm 20.0 15.4 17.2 84 1.7 SSW 37 44 20 24 1017.4 1017.1 0.0
21/12:00pm 20.5 17.4 17.5 83 1.8 SSW 30 35 16 19 1018.0 1017.8 0.0
21/11:30am 20.9 18.9 17.5 81 2.1 S 24 28 13 15 1018.3 1018.1 0.0
21/11:00am 21.4 21.3 17.8 80 2.2 S 15 19 8 10 1018.7 1018.5 0.0
21/10:30am 21.2 21.4 17.6 80 2.2 S 13 17 7 9 1018.8 1018.6 0.0
21/10:00am 21.3 21.6 16.9 76 2.7 S 11 15 6 8 1018.7 1018.5 0.0
21/09:30am 20.9 20.8 16.9 78 2.4 S 13 15 7 8 1018.8 1018.6 0.0
21/09:00am 20.0 20.3 17.0 83 1.8 SSW 11 15 6 8 1018.9 1018.7 0.2
21/08:30am 19.2 19.3 16.4 84 1.7 SSW 11 13 6 7 1019.0 1018.8 0.2
21/08:00am 19.1 18.7 16.3 84 1.7 SSW 13 15 7 8 1018.9 1018.7 0.2
21/07:30am 19.5 19.4 16.0 80 2.1 SW 11 15 6 8 1018.8 1018.6 0.2
21/07:00am 18.7 19.3 16.8 89 1.1 NW 9 11 5 6 1018.5 1018.3 0.2
21/06:30am 18.5 19.1 16.7 89 1.1 W 9 11 5 6 1017.9 1017.6 0.2
21/06:00am 19.4 20.9 17.5 89 1.2 N 6 9 3 5 1017.7 1017.4 0.2
21/05:30am 19.7 20.4 18.0 90 1.1 N 11 17 6 9 1017.2 1016.9 0.2
21/05:00am 19.6 19.1 17.9 90 1.0 N 17 22 9 12 1017.1 1016.8 0.2
21/04:30am 19.6 19.9 17.9 90 1.1 N 13 20 7 11 1017.3 1017.0 0.2
21/04:00am 19.6 18.5 17.7 89 1.2 N 20 28 11 15 1017.2 1016.9 0.2
21/03:30am 19.6 19.0 17.6 88 1.2 N 17 24 9 13 1017.1 1016.8 0.2
21/03:00am 20.0 19.6 18.0 88 1.2 N 17 26 9 14 1017.3 1017.0 0.2
21/02:30am 19.9 19.7 17.5 86 1.5 NNW 15 24 8 13 1017.4 1017.1 0.2

Other Formats:

Comma delimited format used in spreadsheet applications
http://www.bom.gov.au/fwo/IDN60801/IDN60801.94599.axf

JavaScript Object Notation format (JSON) in row-major order
http://www.bom.gov.au/fwo/IDN60801/IDN60801.94599.json